createdAt,value
2023-07-29T00:01:27.784Z,91.21
2023-07-29T00:03:55.787Z,91.34
2023-07-29T00:06:23.736Z,91.26
2023-07-29T00:08:53.139Z,90.85
2023-07-29T00:11:21.219Z,90.68
2023-07-29T00:13:51.158Z,90.97
2023-07-29T00:16:19.285Z,90.81
2023-07-29T00:18:47.297Z,90.98
2023-07-29T00:21:15.227Z,91.38
2023-07-29T00:23:43.158Z,90.75
2023-07-29T00:26:12.406Z,90.88
2023-07-29T00:28:40.364Z,90.92
2023-07-29T00:31:08.277Z,91.29
2023-07-29T00:33:36.487Z,91.69
2023-07-29T00:36:04.709Z,91.49
2023-07-29T00:38:32.613Z,91.43
2023-07-29T00:41:01.505Z,91.49
2023-07-29T00:43:30.790Z,91.34
2023-07-29T00:45:59.021Z,90.96
2023-07-29T00:48:27.980Z,90.81
2023-07-29T00:50:56.380Z,91.07
2023-07-29T00:53:24.264Z,91.19
2023-07-29T00:55:52.207Z,91.36
2023-07-29T00:58:20.414Z,91.69
2023-07-29T01:00:50.920Z,91.69
2023-07-29T01:03:19.493Z,92.25
2023-07-29T01:05:58.794Z,92.62
2023-07-29T01:08:35.485Z,93.01
2023-07-29T01:11:10.667Z,93.07
2023-07-29T01:13:46.684Z,93.20
2023-07-29T01:16:21.400Z,93.74
2023-07-29T01:18:50.648Z,93.68
2023-07-29T01:21:19.436Z,93.29
2023-07-29T01:23:48.774Z,93.36
2023-07-29T01:26:16.629Z,93.54
2023-07-29T01:28:45.250Z,93.52
2023-07-29T01:31:25.588Z,93.40
2023-07-29T01:33:59.897Z,93.22
2023-07-29T01:36:31.530Z,93.46
2023-07-29T01:39:02.574Z,93.66
2023-07-29T01:41:31.274Z,93.53
2023-07-29T01:43:59.925Z,93.19
2023-07-29T01:46:28.115Z,93.47
2023-07-29T01:48:56.021Z,93.57
2023-07-29T01:51:23.939Z,93.05
2023-07-29T01:53:52.060Z,92.92
2023-07-29T01:56:21.517Z,92.98
2023-07-29T01:58:55.838Z,93.10
2023-07-29T02:01:23.969Z,93.10
2023-07-29T02:03:56.235Z,93.19
2023-07-29T02:06:25.323Z,93.45
2023-07-29T02:08:53.397Z,93.44
2023-07-29T02:11:28.324Z,93.35
2023-07-29T02:13:57.181Z,93.27
2023-07-29T02:16:25.306Z,93.41
2023-07-29T02:18:56.160Z,93.63
2023-07-29T02:21:24.607Z,93.83
2023-07-29T02:23:52.568Z,94.11
2023-07-29T02:26:22.138Z,93.95
2023-07-29T02:28:50.037Z,94.18
2023-07-29T02:31:19.080Z,94.03
2023-07-29T02:33:47.713Z,94.20
2023-07-29T02:36:21.541Z,94.09
2023-07-29T02:38:49.756Z,93.73
2023-07-29T02:41:17.894Z,94.00
2023-07-29T02:43:50.876Z,94.06
2023-07-29T02:46:18.958Z,94.17
2023-07-29T02:48:47.030Z,94.06
2023-07-29T02:51:14.960Z,94.14
2023-07-29T02:53:42.872Z,94.28
2023-07-29T02:56:11.365Z,94.80
2023-07-29T02:58:39.597Z,94.68
2023-07-29T03:01:10.318Z,94.37
2023-07-29T03:03:39.333Z,94.65
2023-07-29T03:06:09.216Z,94.99
2023-07-29T03:08:37.864Z,94.72
2023-07-29T03:11:08.431Z,94.93
2023-07-29T03:13:36.482Z,95.13
2023-07-29T03:16:08.468Z,94.75
2023-07-29T03:18:38.347Z,94.81
2023-07-29T03:21:06.832Z,94.66
2023-07-29T03:23:35.823Z,94.63
2023-07-29T03:26:11.442Z,94.85
2023-07-29T03:28:41.825Z,94.99
2023-07-29T03:31:10.206Z,94.50
2023-07-29T03:33:40.034Z,94.46
2023-07-29T03:36:08.165Z,94.07
2023-07-29T03:38:36.575Z,93.15
2023-07-29T03:41:04.978Z,92.85
2023-07-29T03:43:33.054Z,92.62
2023-07-29T03:46:03.235Z,92.34
2023-07-29T03:48:32.335Z,92.81
2023-07-29T03:51:01.846Z,92.09
2023-07-29T03:53:29.768Z,91.92
2023-07-29T03:55:57.724Z,91.89
2023-07-29T03:58:25.588Z,91.83
2023-07-29T04:00:53.505Z,91.51
2023-07-29T04:03:21.711Z,92.28
2023-07-29T04:05:50.477Z,92.19
2023-07-29T04:08:21.479Z,91.67
2023-07-29T04:10:50.409Z,91.52
2023-07-29T04:13:18.454Z,91.52
2023-07-29T04:15:46.853Z,90.72
2023-07-29T04:18:14.772Z,90.81
2023-07-29T04:20:44.004Z,91.12
2023-07-29T04:23:11.913Z,91.17
2023-07-29T04:25:41.344Z,90.24
2023-07-29T04:28:09.269Z,90.87
2023-07-29T04:30:37.162Z,91.34
2023-07-29T04:33:05.515Z,91.24
2023-07-29T04:35:33.444Z,91.69
2023-07-29T04:38:01.324Z,91.13
2023-07-29T04:40:29.222Z,90.97
2023-07-29T04:42:58.576Z,91.67
2023-07-29T04:45:30.550Z,91.27
2023-07-29T04:47:58.698Z,91.51
2023-07-29T04:50:26.643Z,91.99
2023-07-29T04:52:54.982Z,92.11
2023-07-29T04:55:22.837Z,92.92
2023-07-29T04:57:50.710Z,92.61
2023-07-29T05:00:20.290Z,91.91
2023-07-29T05:02:48.222Z,92.34
2023-07-29T05:05:16.124Z,92.38
2023-07-29T05:07:44.465Z,92.51
2023-07-29T05:10:12.517Z,92.04
2023-07-29T05:12:40.393Z,91.33
2023-07-29T05:15:09.766Z,91.29
2023-07-29T05:17:39.288Z,90.77
2023-07-29T05:20:08.984Z,90.97
2023-07-29T05:22:36.926Z,90.92
2023-07-29T05:25:05.409Z,90.27
2023-07-29T05:27:33.329Z,90.23
2023-07-29T05:30:01.198Z,90.64
2023-07-29T05:32:29.145Z,90.53
2023-07-29T05:34:58.435Z,90.42
2023-07-29T05:37:26.338Z,91.05
2023-07-29T05:39:54.221Z,90.76
2023-07-29T05:42:22.119Z,91.04
2023-07-29T05:44:50.038Z,90.93
2023-07-29T05:47:17.961Z,90.13
2023-07-29T05:49:45.934Z,89.95
2023-07-29T05:52:15.428Z,89.68
2023-07-29T05:54:43.771Z,89.59
2023-07-29T05:57:13.251Z,89.28
2023-07-29T05:59:41.192Z,89.02
2023-07-29T06:02:09.830Z,89.59
2023-07-29T06:04:37.978Z,89.45
2023-07-29T06:07:06.601Z,89.11
2023-07-29T06:09:35.954Z,87.99
2023-07-29T06:12:04.695Z,86.96
2023-07-29T06:14:32.611Z,86.93
2023-07-29T06:17:00.564Z,87.23
2023-07-29T06:19:28.478Z,88.43
2023-07-29T06:21:57.497Z,88.91
2023-07-29T06:24:25.324Z,88.79
2023-07-29T06:26:54.849Z,89.06
2023-07-29T06:29:22.702Z,88.90
2023-07-29T06:31:52.396Z,88.31
2023-07-29T06:34:20.470Z,88.22
2023-07-29T06:36:48.357Z,87.83
2023-07-29T06:39:16.193Z,87.42
2023-07-29T06:41:44.071Z,87.84
2023-07-29T06:44:14.639Z,87.45
2023-07-29T06:46:42.622Z,86.98
2023-07-29T06:49:10.638Z,87.47
2023-07-29T06:51:38.573Z,87.13
2023-07-29T06:54:06.437Z,86.49
2023-07-29T06:56:34.491Z,87.07
2023-07-29T06:59:02.532Z,85.29
2023-07-29T07:01:31.824Z,84.60
2023-07-29T07:03:59.839Z,84.21
2023-07-29T07:06:27.811Z,83.38
2023-07-29T07:08:55.675Z,83.05
2023-07-29T07:11:23.574Z,83.29
2023-07-29T07:13:51.413Z,82.60
2023-07-29T07:16:19.274Z,81.44
2023-07-29T07:18:48.577Z,78.81
2023-07-29T07:21:16.454Z,74.81
2023-07-29T07:23:44.318Z,72.19
2023-07-29T07:26:12.236Z,67.64
2023-07-29T07:28:40.090Z,67.59
2023-07-29T07:31:10.806Z,66.55
2023-07-29T07:33:38.969Z,71.08
2023-07-29T07:36:08.326Z,71.16
2023-07-29T07:38:36.293Z,69.75
2023-07-29T07:41:04.138Z,69.80
2023-07-29T07:43:32.691Z,70.90
2023-07-29T07:46:01.647Z,71.95
2023-07-29T07:48:29.599Z,73.95
2023-07-29T07:50:57.649Z,75.59
2023-07-29T07:53:27.712Z,75.54
2023-07-29T07:55:55.627Z,76.41
2023-07-29T07:58:23.454Z,76.74
2023-07-29T08:00:51.437Z,77.30
2023-07-29T08:03:19.996Z,78.88
2023-07-29T08:05:47.962Z,78.61
2023-07-29T08:08:15.809Z,79.64
2023-07-29T08:10:45.026Z,77.31
2023-07-29T08:13:12.888Z,77.61
2023-07-29T08:15:42.150Z,78.44
2023-07-29T08:18:10.054Z,75.58
2023-07-29T08:20:37.912Z,75.14
2023-07-29T08:23:05.833Z,74.81
2023-07-29T08:25:33.695Z,74.04
2023-07-29T08:28:02.959Z,73.35
2023-07-29T08:30:30.863Z,71.53
2023-07-29T08:32:58.966Z,72.13
2023-07-29T08:35:26.821Z,71.12
2023-07-29T08:37:54.702Z,70.71
2023-07-29T08:40:29.512Z,71.54
2023-07-29T08:43:00.246Z,70.40
2023-07-29T08:45:30.069Z,70.08
2023-07-29T08:48:00.805Z,70.71
2023-07-29T08:50:28.896Z,69.61
2023-07-29T08:52:57.729Z,71.41
2023-07-29T08:55:25.517Z,71.78
2023-07-29T08:57:54.101Z,73.93
2023-07-29T09:00:22.677Z,74.44
2023-07-29T09:02:52.017Z,74.98
2023-07-29T09:05:20.566Z,75.32
2023-07-29T09:07:49.884Z,75.95
2023-07-29T09:10:17.790Z,76.69
2023-07-29T09:12:45.702Z,77.32
2023-07-29T09:15:13.585Z,78.23
2023-07-29T09:17:42.903Z,78.12
2023-07-29T09:20:13.642Z,77.80
2023-07-29T09:22:41.542Z,78.55
2023-07-29T09:25:10.313Z,79.06
2023-07-29T09:27:40.690Z,79.72
2023-07-29T09:30:17.243Z,80.75
2023-07-29T09:32:45.248Z,80.60
2023-07-29T09:35:14.897Z,80.33
2023-07-29T09:37:42.890Z,80.18
2023-07-29T09:40:16.141Z,80.18
2023-07-29T09:42:50.785Z,81.34
2023-07-29T09:45:23.210Z,81.28
2023-07-29T09:47:51.863Z,81.18
2023-07-29T09:50:25.078Z,81.57
2023-07-29T09:52:53.772Z,81.43
2023-07-29T09:55:23.365Z,81.48
2023-07-29T09:57:55.776Z,81.04
2023-07-29T10:00:23.720Z,81.03
2023-07-29T10:02:52.090Z,79.56
2023-07-29T10:05:24.088Z,79.51
2023-07-29T10:07:52.458Z,76.33
2023-07-29T10:10:20.364Z,72.95
2023-07-29T10:12:48.711Z,70.50
2023-07-29T10:15:16.637Z,68.29
2023-07-29T10:17:45.631Z,68.32
2023-07-29T10:20:14.913Z,69.37
2023-07-29T10:22:48.153Z,70.59
2023-07-29T10:25:20.660Z,71.15
2023-07-29T10:27:51.359Z,71.49
2023-07-29T10:30:19.416Z,70.38
2023-07-29T10:32:48.250Z,71.36
2023-07-29T10:35:16.292Z,71.32
2023-07-29T10:37:46.624Z,70.94
2023-07-29T10:40:14.660Z,71.38
2023-07-29T10:43:04.082Z,68.80
2023-07-29T10:45:40.143Z,66.69
2023-07-29T10:48:09.794Z,65.25
2023-07-29T10:50:37.719Z,65.64
2023-07-29T10:53:07.127Z,65.38
2023-07-29T10:55:37.714Z,64.81
2023-07-29T10:58:15.373Z,64.33
2023-07-29T11:00:45.213Z,65.18
2023-07-29T11:03:15.723Z,64.84
2023-07-29T11:05:49.365Z,66.59
2023-07-29T11:08:24.134Z,68.96
2023-07-29T11:11:04.583Z,69.37
2023-07-29T11:13:33.492Z,68.62
2023-07-29T11:16:02.554Z,66.91
2023-07-29T11:18:32.435Z,66.44
2023-07-29T11:21:00.771Z,67.43
2023-07-29T11:23:34.426Z,67.80
2023-07-29T11:26:02.656Z,68.21
2023-07-29T11:28:31.144Z,66.52
2023-07-29T11:30:59.714Z,64.62
2023-07-29T11:33:29.438Z,65.19
2023-07-29T11:35:57.956Z,63.62
2023-07-29T11:38:25.864Z,63.51
2023-07-29T11:41:04.242Z,63.20
2023-07-29T11:43:32.144Z,61.60
2023-07-29T11:46:03.256Z,62.20
2023-07-29T11:48:34.599Z,61.56
2023-07-29T11:51:04.536Z,60.35
2023-07-29T11:53:33.000Z,61.13
2023-07-29T11:56:02.451Z,61.35
2023-07-29T11:58:30.549Z,61.01
2023-07-29T12:00:58.469Z,61.61
2023-07-29T12:03:28.158Z,59.90
2023-07-29T12:05:56.430Z,60.90
2023-07-29T12:08:24.628Z,59.56
2023-07-29T12:10:52.627Z,61.34
2023-07-29T12:13:26.103Z,61.90
2023-07-29T12:15:54.994Z,63.45
2023-07-29T12:18:32.118Z,66.04
2023-07-29T12:21:00.209Z,67.53
2023-07-29T12:23:28.630Z,68.84
2023-07-29T12:25:59.476Z,70.31
2023-07-29T12:28:29.158Z,70.98
2023-07-29T12:30:57.822Z,71.17
2023-07-29T12:33:32.692Z,74.96
2023-07-29T12:36:00.879Z,76.36
2023-07-29T12:38:29.500Z,76.69
2023-07-29T12:40:57.652Z,77.44
2023-07-29T12:43:26.870Z,80.67
2023-07-29T12:45:56.162Z,81.88
2023-07-29T12:48:24.025Z,82.69
2023-07-29T12:50:52.804Z,83.43
2023-07-29T12:53:20.757Z,83.67
2023-07-29T12:55:48.674Z,84.41
2023-07-29T12:58:16.532Z,85.31
2023-07-29T13:00:44.442Z,86.13
2023-07-29T13:03:13.814Z,86.71
2023-07-29T13:05:41.915Z,88.06
2023-07-29T13:08:14.304Z,87.41
2023-07-29T13:10:42.201Z,86.94
2023-07-29T13:13:10.045Z,86.36
2023-07-29T13:15:38.132Z,85.35
2023-07-29T13:18:06.164Z,85.37
2023-07-29T13:20:35.861Z,85.31
2023-07-29T13:23:03.701Z,84.15
2023-07-29T13:25:31.991Z,83.87
2023-07-29T13:28:00.089Z,84.24
2023-07-29T13:30:28.546Z,83.47
2023-07-29T13:32:56.485Z,83.65
2023-07-29T13:35:24.494Z,82.36
2023-07-29T13:37:53.725Z,82.44
2023-07-29T13:40:21.649Z,82.61
2023-07-29T13:42:49.532Z,82.23
2023-07-29T13:45:17.532Z,82.29
2023-07-29T13:47:45.551Z,82.07
2023-07-29T13:50:13.480Z,82.18
2023-07-29T13:52:41.354Z,82.46
2023-07-29T13:55:12.526Z,81.85
2023-07-29T13:57:40.943Z,83.41
2023-07-29T14:00:10.276Z,83.27
2023-07-29T14:02:41.206Z,82.01
2023-07-29T14:05:10.011Z,82.27
2023-07-29T14:07:37.998Z,82.31
2023-07-29T14:10:06.519Z,83.11
2023-07-29T14:12:35.893Z,83.54
2023-07-29T14:15:03.854Z,84.27
2023-07-29T14:17:31.781Z,83.68
2023-07-29T14:19:59.720Z,85.22
2023-07-29T14:22:27.606Z,83.57
2023-07-29T14:24:56.004Z,84.13
2023-07-29T14:27:24.631Z,85.59
2023-07-29T14:29:53.893Z,85.09
2023-07-29T14:32:23.688Z,84.20
2023-07-29T14:34:51.890Z,84.83
2023-07-29T14:37:19.745Z,84.73
2023-07-29T14:39:47.637Z,85.93
2023-07-29T14:42:15.927Z,84.61
2023-07-29T14:44:44.749Z,84.17
2023-07-29T14:47:13.997Z,85.49
2023-07-29T14:49:41.928Z,85.43
2023-07-29T14:52:10.076Z,85.21
2023-07-29T14:54:37.971Z,85.10
2023-07-29T14:57:08.376Z,85.36
2023-07-29T14:59:36.259Z,84.89
2023-07-29T15:02:04.242Z,85.28
2023-07-29T15:04:33.519Z,85.73
2023-07-29T15:07:01.479Z,86.01
2023-07-29T15:09:29.382Z,86.38
2023-07-29T15:11:59.338Z,87.30
2023-07-29T15:14:27.474Z,87.24
2023-07-29T15:16:55.342Z,87.44
2023-07-29T15:19:23.261Z,87.14
2023-07-29T15:21:52.481Z,87.15
2023-07-29T15:24:20.355Z,86.18
2023-07-29T15:26:48.199Z,87.13
2023-07-29T15:29:16.071Z,86.30
2023-07-29T15:31:44.187Z,86.15
2023-07-29T15:34:12.048Z,86.06
2023-07-29T15:36:39.927Z,85.19
2023-07-29T15:39:09.722Z,85.43
2023-07-29T15:41:37.684Z,85.56
2023-07-29T15:44:05.911Z,85.39
2023-07-29T15:46:34.002Z,85.07
2023-07-29T15:49:01.924Z,85.62
2023-07-29T15:51:29.869Z,84.66
2023-07-29T15:53:57.735Z,84.48
2023-07-29T15:56:29.166Z,84.71
2023-07-29T15:58:57.064Z,84.60
2023-07-29T16:01:25.256Z,84.28
2023-07-29T16:03:53.194Z,84.90
2023-07-29T16:06:21.172Z,84.15
2023-07-29T16:08:49.091Z,84.81
2023-07-29T16:11:16.961Z,83.98
2023-07-29T16:13:46.202Z,83.87
2023-07-29T16:16:14.078Z,85.01
2023-07-29T16:18:42.008Z,85.05
2023-07-29T16:21:09.873Z,85.65
2023-07-29T16:23:38.555Z,84.95
2023-07-29T16:26:06.428Z,84.95
2023-07-29T16:28:34.520Z,85.70
2023-07-29T16:31:04.868Z,86.20
2023-07-29T16:33:32.878Z,85.60
2023-07-29T16:36:00.740Z,87.09
2023-07-29T16:38:28.632Z,87.15
2023-07-29T16:41:08.735Z,86.80
2023-07-29T16:43:39.021Z,85.75
2023-07-29T16:46:08.390Z,86.99
2023-07-29T16:48:36.609Z,87.68
2023-07-29T16:51:04.878Z,87.53
2023-07-29T16:53:32.797Z,86.33
2023-07-29T16:56:01.281Z,86.62
2023-07-29T16:58:29.263Z,87.22
2023-07-29T17:00:57.116Z,88.59
2023-07-29T17:03:26.388Z,89.53
2023-07-29T17:05:56.968Z,88.96
2023-07-29T17:08:24.862Z,89.22
2023-07-29T17:10:52.767Z,89.17
2023-07-29T17:13:20.625Z,89.68
2023-07-29T17:15:48.822Z,89.87
2023-07-29T17:18:16.913Z,90.08
2023-07-29T17:20:46.147Z,90.29
2023-07-29T17:23:14.001Z,87.91
2023-07-29T17:25:41.895Z,89.97
2023-07-29T17:28:09.895Z,90.45
2023-07-29T17:30:37.783Z,90.26
2023-07-29T17:33:05.916Z,89.33
2023-07-29T17:35:33.821Z,89.76
2023-07-29T17:38:03.711Z,90.04
2023-07-29T17:40:31.608Z,89.68
2023-07-29T17:42:59.464Z,89.70
2023-07-29T17:45:27.326Z,89.82
2023-07-29T17:47:55.421Z,89.93
2023-07-29T17:50:23.872Z,90.05
2023-07-29T17:52:51.957Z,90.51
2023-07-29T17:55:21.206Z,90.90
2023-07-29T17:57:49.111Z,91.12
2023-07-29T18:00:17.123Z,91.34
2023-07-29T18:02:45.078Z,91.52
2023-07-29T18:05:13.154Z,91.36
2023-07-29T18:07:41.070Z,91.35
2023-07-29T18:10:10.664Z,91.51
2023-07-29T18:12:42.838Z,91.10
2023-07-29T18:15:11.718Z,91.20
2023-07-29T18:17:39.829Z,91.39
2023-07-29T18:20:08.777Z,91.29
2023-07-29T18:22:36.696Z,90.84
2023-07-29T18:25:04.719Z,90.45
2023-07-29T18:27:32.786Z,90.31
2023-07-29T18:30:02.021Z,89.99
2023-07-29T18:32:29.993Z,90.41
2023-07-29T18:34:57.926Z,90.58
2023-07-29T18:37:25.814Z,90.50
2023-07-29T18:39:53.681Z,89.88
2023-07-29T18:42:21.936Z,89.77
2023-07-29T18:44:49.875Z,89.70
2023-07-29T18:47:19.083Z,89.95
2023-07-29T18:49:46.965Z,90.04
2023-07-29T18:52:14.929Z,90.09
2023-07-29T18:54:44.858Z,90.08
2023-07-29T18:57:13.232Z,89.81
2023-07-29T18:59:41.135Z,89.85
2023-07-29T19:02:09.274Z,90.00
2023-07-29T19:04:38.551Z,90.23
2023-07-29T19:07:07.174Z,90.09
2023-07-29T19:09:35.020Z,90.15
2023-07-29T19:12:02.911Z,90.03
2023-07-29T19:14:30.798Z,90.28
2023-07-29T19:16:58.737Z,90.54
2023-07-29T19:19:26.717Z,90.53
2023-07-29T19:21:55.920Z,90.48
2023-07-29T19:24:23.900Z,90.74
2023-07-29T19:26:52.465Z,90.91
2023-07-29T19:29:20.272Z,90.85
2023-07-29T19:31:48.192Z,90.91
2023-07-29T19:34:16.068Z,91.06
2023-07-29T19:36:43.951Z,91.18
2023-07-29T19:39:13.170Z,91.20
2023-07-29T19:41:41.075Z,91.26
2023-07-29T19:44:20.532Z,91.15
2023-07-29T19:46:50.834Z,91.50
2023-07-29T19:49:18.847Z,91.65
2023-07-29T19:51:46.704Z,91.68
2023-07-29T19:54:15.916Z,91.90
2023-07-29T19:56:43.788Z,92.13
2023-07-29T19:59:11.733Z,91.98
2023-07-29T20:01:39.854Z,91.99
2023-07-29T20:04:08.095Z,91.95
2023-07-29T20:06:36.029Z,92.02
2023-07-29T20:09:04.034Z,92.25
2023-07-29T20:11:33.303Z,92.16
2023-07-29T20:14:01.181Z,92.26
2023-07-29T20:16:29.937Z,92.49
2023-07-29T20:18:57.854Z,92.81
2023-07-29T20:21:25.731Z,92.75
2023-07-29T20:23:55.484Z,92.95
2023-07-29T20:26:23.457Z,93.07
2023-07-29T20:28:52.691Z,93.02
2023-07-29T20:31:20.637Z,92.87
2023-07-29T20:33:48.563Z,92.85
2023-07-29T20:36:16.458Z,93.19
2023-07-29T20:38:44.313Z,93.47
2023-07-29T20:41:12.162Z,93.91
2023-07-29T20:43:41.768Z,94.00
2023-07-29T20:46:20.904Z,93.88
2023-07-29T20:48:48.921Z,93.79
2023-07-29T20:51:18.616Z,93.81
2023-07-29T20:53:47.060Z,93.89
2023-07-29T20:56:15.971Z,94.10
2023-07-29T20:58:43.965Z,94.14
2023-07-29T21:01:11.992Z,94.56
2023-07-29T21:03:41.263Z,94.67
2023-07-29T21:06:11.858Z,94.90
2023-07-29T21:08:40.051Z,94.76
2023-07-29T21:11:08.409Z,94.64
2023-07-29T21:13:36.245Z,94.77
2023-07-29T21:16:04.144Z,94.70
2023-07-29T21:18:32.021Z,94.67
2023-07-29T21:21:01.263Z,94.65
2023-07-29T21:23:29.388Z,94.37
2023-07-29T21:25:57.249Z,94.55
2023-07-29T21:28:25.169Z,94.14
2023-07-29T21:30:53.063Z,93.74
2023-07-29T21:33:20.961Z,93.64
2023-07-29T21:35:49.583Z,93.43
2023-07-29T21:38:29.293Z,93.35
2023-07-29T21:40:58.085Z,93.17
2023-07-29T21:43:26.167Z,93.19
2023-07-29T21:45:54.298Z,93.39
2023-07-29T21:48:22.168Z,93.57
2023-07-29T21:50:51.255Z,93.55
2023-07-29T21:53:20.923Z,93.93
2023-07-29T21:55:48.970Z,93.96
2023-07-29T21:58:16.930Z,94.15
2023-07-29T22:00:44.801Z,94.23
2023-07-29T22:03:12.712Z,94.43
2023-07-29T22:05:40.644Z,94.25
2023-07-29T22:08:08.513Z,94.19
2023-07-29T22:10:40.929Z,93.65
2023-07-29T22:13:08.834Z,93.30
2023-07-29T22:15:37.622Z,93.39
2023-07-29T22:18:05.827Z,93.45
2023-07-29T22:20:33.841Z,93.29
2023-07-29T22:23:01.703Z,93.06
2023-07-29T22:25:29.615Z,93.20
2023-07-29T22:27:59.073Z,93.08
2023-07-29T22:30:27.004Z,92.35
2023-07-29T22:32:55.054Z,92.29
2023-07-29T22:35:23.072Z,92.14
2023-07-29T22:37:50.956Z,91.96
2023-07-29T22:40:20.360Z,91.78
2023-07-29T22:42:48.233Z,92.34
2023-07-29T22:45:17.534Z,92.02
2023-07-29T22:47:45.345Z,91.47
2023-07-29T22:50:13.279Z,91.94
2023-07-29T22:52:41.131Z,91.71
2023-07-29T22:55:09.665Z,93.18
2023-07-29T22:57:37.538Z,92.96
2023-07-29T23:00:06.517Z,92.11
2023-07-29T23:02:35.815Z,92.01
2023-07-29T23:05:03.766Z,91.31
2023-07-29T23:07:31.710Z,90.74
2023-07-29T23:09:59.571Z,89.98
2023-07-29T23:12:27.448Z,90.89
2023-07-29T23:14:55.399Z,91.17
2023-07-29T23:17:23.353Z,90.62
2023-07-29T23:19:52.862Z,90.31
2023-07-29T23:22:20.738Z,91.34
2023-07-29T23:24:48.621Z,91.83
2023-07-29T23:27:16.476Z,91.19
2023-07-29T23:29:44.365Z,91.39
2023-07-29T23:32:12.284Z,90.61
2023-07-29T23:34:40.372Z,90.64
2023-07-29T23:37:09.623Z,90.70
2023-07-29T23:39:37.477Z,91.59
2023-07-29T23:42:05.978Z,92.55
2023-07-29T23:44:33.929Z,92.03
2023-07-29T23:47:01.818Z,92.08
2023-07-29T23:49:29.721Z,91.95
2023-07-29T23:51:57.596Z,90.61
2023-07-29T23:54:26.901Z,91.07
2023-07-29T23:56:54.811Z,91.46
2023-07-29T23:59:22.623Z,91.50
